createdAt,value
2023-04-05T00:01:19.386Z,81.15
2023-04-05T00:04:05.943Z,75.20
2023-04-05T00:06:53.235Z,74.20
2023-04-05T00:09:39.183Z,63.55
2023-04-05T00:12:25.201Z,72.65
2023-04-05T00:15:11.587Z,63.03
2023-04-05T00:17:58.414Z,66.25
2023-04-05T00:20:45.067Z,72.78
2023-04-05T00:23:37.567Z,69.90
2023-04-05T00:26:23.402Z,71.53
2023-04-05T00:29:14.539Z,80.57
2023-04-05T00:32:00.963Z,75.18
2023-04-05T00:34:48.028Z,65.03
2023-04-05T00:37:34.183Z,70.65
2023-04-05T00:40:20.682Z,64.00
2023-04-05T00:43:06.664Z,61.97
2023-04-05T00:45:53.565Z,65.10
2023-04-05T00:48:40.350Z,61.13
2023-04-05T00:51:26.787Z,76.57
2023-04-05T00:54:14.490Z,80.85
2023-04-05T00:57:01.037Z,77.60
2023-04-05T00:59:47.754Z,75.88
2023-04-05T01:02:39.464Z,68.63
2023-04-05T01:05:34.485Z,66.47
2023-04-05T01:08:29.160Z,65.88
2023-04-05T01:11:16.526Z,59.58
2023-04-05T01:14:02.904Z,55.78
2023-04-05T01:16:50.292Z,52.38
2023-04-05T01:19:42.072Z,54.10
2023-04-05T01:22:38.152Z,63.83
2023-04-05T01:25:43.592Z,62.72
2023-04-05T01:28:57.940Z,75.07
2023-04-05T01:31:53.485Z,63.03
2023-04-05T01:35:10.071Z,68.10
2023-04-05T01:38:01.405Z,60.75
2023-04-05T01:40:48.058Z,70.45
2023-04-05T01:43:34.468Z,74.25
2023-04-05T01:46:21.068Z,72.90
2023-04-05T01:49:07.221Z,73.90
2023-04-05T01:51:53.407Z,66.75
2023-04-05T01:54:40.994Z,55.65
2023-04-05T01:57:28.405Z,47.03
2023-04-05T02:00:14.536Z,44.90
2023-04-05T02:03:00.644Z,40.67
2023-04-05T02:05:47.340Z,30.83
2023-04-05T02:08:33.251Z,41.67
2023-04-05T02:11:19.747Z,34.78
2023-04-05T02:14:05.468Z,36.25
2023-04-05T02:16:53.890Z,39.42
2023-04-05T02:19:46.340Z,47.05
2023-04-05T02:22:32.859Z,48.47
2023-04-05T02:25:18.988Z,40.72
2023-04-05T02:28:05.433Z,40.95
2023-04-05T02:30:51.565Z,40.58
2023-04-05T02:33:38.577Z,41.65
2023-04-05T02:36:24.544Z,40.63
2023-04-05T02:39:11.829Z,40.88
2023-04-05T02:41:59.242Z,45.20
2023-04-05T02:44:45.275Z,47.78
2023-04-05T02:47:34.257Z,41.28
2023-04-05T02:50:21.545Z,42.70
2023-04-05T02:53:07.437Z,37.42
2023-04-05T02:55:57.507Z,41.70
2023-04-05T02:58:44.309Z,41.47
2023-04-05T03:01:32.774Z,33.05
2023-04-05T03:04:19.290Z,30.80
2023-04-05T03:07:05.424Z,36.47
2023-04-05T03:09:55.634Z,35.88
2023-04-05T03:12:41.921Z,30.20
2023-04-05T03:15:32.976Z,32.85
2023-04-05T03:18:26.932Z,31.63
2023-04-05T03:21:18.118Z,33.60
2023-04-05T03:24:13.466Z,83.18
2023-04-05T03:27:06.378Z,108.45
2023-04-05T03:30:08.010Z,84.80
2023-04-05T03:33:01.588Z,80.32
2023-04-05T03:36:05.442Z,63.38
2023-04-05T03:38:56.189Z,55.95
2023-04-05T03:41:43.222Z,63.83
2023-04-05T03:44:30.328Z,52.92
2023-04-05T03:47:17.717Z,57.25
2023-04-05T03:50:05.579Z,49.22
2023-04-05T03:52:52.353Z,50.72
2023-04-05T03:55:38.922Z,46.83
2023-04-05T03:58:27.633Z,48.45
2023-04-05T04:01:15.626Z,52.13
2023-04-05T04:04:02.246Z,49.67
2023-04-05T04:06:49.351Z,47.58
2023-04-05T04:09:39.306Z,46.95
2023-04-05T04:12:28.538Z,47.72
2023-04-05T04:15:19.149Z,53.13
2023-04-05T04:18:24.401Z,60.65
2023-04-05T04:21:39.836Z,42.33
2023-04-05T04:24:51.565Z,42.03
2023-04-05T04:28:13.220Z,43.55
2023-04-05T04:31:33.910Z,39.95
2023-04-05T04:34:36.120Z,41.38
2023-04-05T04:37:33.422Z,41.83
2023-04-05T04:40:39.246Z,55.75
2023-04-05T04:43:45.313Z,56.08
2023-04-05T04:46:55.176Z,69.32
2023-04-05T04:50:05.070Z,91.22
2023-04-05T04:52:51.934Z,59.67
2023-04-05T04:55:44.370Z,50.10
2023-04-05T04:58:31.377Z,44.53
2023-04-05T05:01:25.281Z,54.75
2023-04-05T05:04:12.119Z,63.30
2023-04-05T05:06:59.624Z,53.90
2023-04-05T05:09:46.796Z,54.13
2023-04-05T05:12:33.106Z,59.85
2023-04-05T05:15:21.205Z,55.42
2023-04-05T05:18:07.164Z,49.00
2023-04-05T05:20:53.465Z,56.05
2023-04-05T05:23:39.119Z,61.38
2023-04-05T05:26:25.207Z,55.42
2023-04-05T05:29:10.855Z,56.05
2023-04-05T05:32:01.265Z,60.15
2023-04-05T05:34:48.823Z,54.78
2023-04-05T05:37:38.304Z,64.32
2023-04-05T05:40:27.022Z,67.68
2023-04-05T05:43:13.464Z,51.08
2023-04-05T05:46:02.101Z,47.00
2023-04-05T05:48:48.654Z,43.00
2023-04-05T05:51:34.561Z,46.08
2023-04-05T05:54:21.245Z,38.90
2023-04-05T05:57:08.301Z,38.97
2023-04-05T05:59:54.634Z,56.75
2023-04-05T06:02:40.764Z,94.05
2023-04-05T06:05:27.100Z,45.88
2023-04-05T06:08:13.717Z,32.47
2023-04-05T06:11:00.730Z,31.75
2023-04-05T06:13:46.710Z,36.40
2023-04-05T06:16:33.251Z,25.98
2023-04-05T06:19:21.878Z,31.58
2023-04-05T06:22:11.404Z,30.35
2023-04-05T06:24:57.664Z,26.27
2023-04-05T06:27:44.970Z,25.60
2023-04-05T06:30:32.121Z,23.58
2023-04-05T06:33:21.624Z,23.50
2023-04-05T06:36:07.851Z,31.15
2023-04-05T06:38:54.838Z,20.25
2023-04-05T06:41:41.061Z,28.13
2023-04-05T06:44:27.453Z,20.75
2023-04-05T06:47:13.462Z,23.33
2023-04-05T06:50:00.753Z,24.92
2023-04-05T06:52:46.930Z,26.42
2023-04-05T06:55:33.224Z,26.63
2023-04-05T06:58:19.861Z,24.40
2023-04-05T07:01:06.827Z,26.00
2023-04-05T07:03:53.950Z,21.75
2023-04-05T07:06:40.716Z,17.25
2023-04-05T07:09:27.396Z,17.10
2023-04-05T07:12:14.427Z,16.65
2023-04-05T07:15:00.717Z,19.38
2023-04-05T07:17:47.423Z,40.33
2023-04-05T07:20:33.642Z,31.35
2023-04-05T07:23:23.082Z,18.40
2023-04-05T07:26:09.461Z,12.98
2023-04-05T07:28:56.485Z,19.25
2023-04-05T07:31:42.577Z,17.65
2023-04-05T07:34:29.356Z,14.32
2023-04-05T07:37:15.674Z,16.20
2023-04-05T07:40:03.131Z,15.70
2023-04-05T07:42:49.236Z,14.60
2023-04-05T07:45:37.273Z,16.10
2023-04-05T07:48:24.237Z,18.08
2023-04-05T07:51:12.586Z,14.38
2023-04-05T07:54:01.176Z,13.00
2023-04-05T07:56:50.085Z,14.65
2023-04-05T07:59:36.686Z,16.67
2023-04-05T08:02:23.158Z,14.93
2023-04-05T08:05:10.092Z,19.52
2023-04-05T08:07:58.412Z,19.63
2023-04-05T08:10:44.190Z,22.65
2023-04-05T08:13:31.687Z,25.73
2023-04-05T08:16:17.894Z,15.55
2023-04-05T08:19:04.480Z,24.30
2023-04-05T08:21:50.637Z,20.13
2023-04-05T08:24:36.716Z,26.77
2023-04-05T08:27:22.920Z,19.60
2023-04-05T08:30:10.517Z,17.52
2023-04-05T08:32:56.637Z,15.57
2023-04-05T08:35:43.734Z,13.23
2023-04-05T08:38:29.775Z,16.35
2023-04-05T08:41:24.464Z,15.45
2023-04-05T08:44:11.272Z,12.30
2023-04-05T08:47:00.034Z,13.82
2023-04-05T09:13:32.986Z,12.70
2023-04-05T09:16:19.818Z,19.38
2023-04-05T09:19:06.747Z,9.48
2023-04-05T09:22:01.153Z,6.90
2023-04-05T09:24:47.845Z,8.80
2023-04-05T09:27:55.662Z,7.93
2023-04-05T09:30:46.578Z,8.38
2023-04-05T09:33:33.600Z,8.57
2023-04-05T09:36:19.333Z,6.68
2023-04-05T09:39:10.710Z,7.80
2023-04-05T09:42:08.833Z,16.05
2023-04-05T09:45:03.047Z,14.07
2023-04-05T09:47:58.108Z,12.93
2023-04-05T09:50:44.577Z,13.13
2023-04-05T09:53:30.433Z,10.60
2023-04-05T09:56:17.235Z,11.80
2023-04-05T09:59:11.342Z,13.50
2023-04-05T10:01:57.849Z,8.95
2023-04-05T10:04:45.898Z,34.75
2023-04-05T10:07:32.569Z,14.43
2023-04-05T10:10:18.447Z,13.27
2023-04-05T10:13:06.127Z,13.43
2023-04-05T10:15:54.931Z,12.27
2023-04-05T10:18:50.315Z,9.15
2023-04-05T10:21:37.924Z,10.57
2023-04-05T10:24:30.200Z,9.70
2023-04-05T10:27:27.114Z,18.98
2023-04-05T10:30:13.609Z,8.23
2023-04-05T10:33:19.355Z,15.27
2023-04-05T10:36:19.490Z,10.68
2023-04-05T10:39:13.149Z,7.65
2023-04-05T10:42:24.555Z,9.20
2023-04-05T10:45:15.526Z,12.40
2023-04-05T10:48:19.166Z,17.33
2023-04-05T10:51:05.202Z,16.52
2023-04-05T10:53:51.822Z,10.50
2023-04-05T10:56:39.620Z,17.98
2023-04-05T10:59:27.427Z,10.73
2023-04-05T11:02:17.578Z,10.52
2023-04-05T11:05:05.322Z,12.63
2023-04-05T11:07:52.318Z,8.00
2023-04-05T11:10:39.490Z,7.93
2023-04-05T11:13:49.871Z,9.27
2023-04-05T11:16:40.903Z,10.45
2023-04-05T11:19:49.207Z,13.45
2023-04-05T11:22:35.888Z,14.98
2023-04-05T11:25:25.371Z,10.40
2023-04-05T11:28:27.148Z,7.72
2023-04-05T11:31:20.733Z,26.40
2023-04-05T11:34:10.585Z,9.35
2023-04-05T11:36:56.124Z,9.95
2023-04-05T11:39:42.709Z,31.30
2023-04-05T11:42:28.941Z,8.88
2023-04-05T11:45:17.207Z,10.43
2023-04-05T11:48:13.996Z,9.32
2023-04-05T11:51:02.113Z,9.55
2023-04-05T11:53:48.774Z,7.85
2023-04-05T11:56:34.523Z,8.00
2023-04-05T11:59:20.080Z,6.80
2023-04-05T12:02:07.551Z,11.02
2023-04-05T12:04:59.894Z,32.33
2023-04-05T12:07:52.467Z,30.75
2023-04-05T12:10:37.888Z,21.25
2023-04-05T12:13:31.903Z,11.93
2023-04-05T12:16:18.147Z,15.48
2023-04-05T12:19:04.201Z,11.23
2023-04-05T12:22:14.527Z,10.68
2023-04-05T12:30:51.032Z,8.73
2023-04-05T12:33:41.084Z,12.15
2023-04-05T12:36:31.895Z,27.63
2023-04-05T12:39:17.923Z,13.85
2023-04-05T12:42:04.041Z,12.52
2023-04-05T12:45:04.292Z,77.07
2023-04-05T12:48:00.242Z,11.43
2023-04-05T12:50:48.329Z,8.18
2023-04-05T12:53:34.062Z,11.43
2023-04-05T12:56:20.629Z,13.40
2023-04-05T12:59:09.786Z,11.40
2023-04-05T13:01:55.847Z,8.75
2023-04-05T13:04:41.722Z,12.05
2023-04-05T13:07:27.736Z,19.48
2023-04-05T13:10:13.202Z,29.55
2023-04-05T13:12:58.911Z,11.57
2023-04-05T13:15:45.762Z,10.20
2023-04-05T13:18:31.614Z,9.65
2023-04-05T13:21:17.593Z,11.18
2023-04-05T13:24:03.280Z,14.00
2023-04-05T13:26:48.710Z,11.13
2023-04-05T13:29:34.917Z,10.25
2023-04-05T13:32:20.221Z,17.52
2023-04-05T13:35:06.641Z,126.60
2023-04-05T13:37:52.281Z,164.40
2023-04-05T13:40:38.322Z,16.25
2023-04-05T13:43:23.755Z,8.63
2023-04-05T13:46:09.826Z,8.50
2023-04-05T13:48:55.787Z,12.00
2023-04-05T13:51:41.995Z,40.22
2023-04-05T13:54:28.704Z,12.77
2023-04-05T13:57:14.793Z,13.45
2023-04-05T14:00:00.498Z,10.27
2023-04-05T14:02:46.722Z,23.52
2023-04-05T14:05:32.669Z,12.60
2023-04-05T14:08:18.782Z,9.25
2023-04-05T14:11:04.294Z,12.60
2023-04-05T14:13:51.241Z,11.20
2023-04-05T14:16:38.217Z,8.35
2023-04-05T14:19:24.315Z,10.63
2023-04-05T14:22:09.817Z,7.15
2023-04-05T14:24:55.837Z,12.82
2023-04-05T14:27:42.583Z,13.15
2023-04-05T14:30:28.689Z,11.05
2023-04-05T14:33:14.836Z,7.47
2023-04-05T14:36:01.177Z,11.73
2023-04-05T14:38:47.715Z,18.10
2023-04-05T14:41:34.904Z,14.02
2023-04-05T14:44:20.887Z,31.92
2023-04-05T14:47:07.245Z,11.25
2023-04-05T14:49:52.651Z,17.08
2023-04-05T14:52:40.113Z,8.32
2023-04-05T14:55:25.970Z,8.82
2023-04-05T14:58:13.782Z,8.40
2023-04-05T15:01:00.342Z,8.30
2023-04-05T15:03:48.316Z,11.27
2023-04-05T15:06:34.220Z,7.72
2023-04-05T15:09:20.902Z,8.93
2023-04-05T15:12:06.722Z,9.18
2023-04-05T15:14:56.500Z,5.70
2023-04-05T15:17:42.841Z,8.65
2023-04-05T15:20:28.998Z,7.57
2023-04-05T15:23:14.364Z,29.33
2023-04-05T15:26:00.557Z,9.43
2023-04-05T15:28:45.847Z,9.90
2023-04-05T15:31:34.286Z,7.65
2023-04-05T15:34:20.421Z,9.27
2023-04-05T15:37:07.165Z,32.70
2023-04-05T15:39:53.067Z,25.45
2023-04-05T15:42:39.066Z,15.50
2023-04-05T15:45:24.692Z,6.80
2023-04-05T15:48:13.530Z,6.70
2023-04-05T15:50:59.434Z,10.85
2023-04-05T15:53:45.555Z,9.43
2023-04-05T15:56:32.042Z,6.60
2023-04-05T15:59:17.856Z,8.32
2023-04-05T16:02:04.100Z,7.13
2023-04-05T16:04:49.718Z,8.55
2023-04-05T16:07:35.701Z,9.60
2023-04-05T16:10:21.720Z,17.27
2023-04-05T16:13:07.241Z,29.10
2023-04-05T16:15:52.815Z,14.48
2023-04-05T16:18:38.385Z,9.20
2023-04-05T16:21:24.285Z,10.15
2023-04-05T16:24:09.910Z,5.95
2023-04-05T16:26:56.830Z,11.63
2023-04-05T16:29:42.505Z,15.38
2023-04-05T16:32:28.376Z,7.95
2023-04-05T16:35:14.449Z,10.07
2023-04-05T16:38:00.353Z,5.53
2023-04-05T16:40:46.009Z,7.15
2023-04-05T16:43:33.499Z,7.43
2023-04-05T16:46:19.648Z,12.55
2023-04-05T16:49:06.308Z,32.22
2023-04-05T16:51:52.080Z,43.08
2023-04-05T16:54:38.407Z,22.35
2023-04-05T16:57:25.822Z,14.68
2023-04-05T17:00:13.537Z,11.38
2023-04-05T17:03:00.425Z,9.82
2023-04-05T17:05:48.008Z,13.43
2023-04-05T17:08:34.285Z,21.70
2023-04-05T17:11:21.722Z,13.07
2023-04-05T17:14:08.952Z,11.80
2023-04-05T17:16:55.674Z,21.45
2023-04-05T17:19:42.429Z,22.15
2023-04-05T17:22:28.610Z,18.83
2023-04-05T17:25:14.865Z,29.67
2023-04-05T17:28:01.022Z,47.22
2023-04-05T17:30:47.397Z,141.00
2023-04-05T17:33:33.759Z,118.57
2023-04-05T17:36:22.820Z,60.30
2023-04-05T17:39:09.498Z,64.82
2023-04-05T17:41:56.738Z,79.72
2023-04-05T17:44:43.165Z,48.60
2023-04-05T17:47:28.849Z,71.03
2023-04-05T17:50:15.669Z,52.55
2023-04-05T17:53:01.300Z,27.08
2023-04-05T17:55:48.914Z,38.88
2023-04-05T17:58:36.746Z,89.50
2023-04-05T18:01:24.728Z,26.23
2023-04-05T18:04:12.749Z,31.40
2023-04-05T18:07:00.251Z,21.67
2023-04-05T18:09:46.749Z,15.55
2023-04-05T18:12:34.683Z,15.90
2023-04-05T18:15:24.552Z,15.50
2023-04-05T18:18:16.639Z,14.57
2023-04-05T18:21:05.304Z,15.93
2023-04-05T18:23:56.022Z,13.77
2023-04-05T18:26:43.234Z,12.32
2023-04-05T18:29:33.427Z,9.52
2023-04-05T18:32:20.031Z,13.90
2023-04-05T18:35:09.350Z,49.45
2023-04-05T18:37:56.712Z,31.02
2023-04-05T18:40:44.401Z,19.83
2023-04-05T18:43:30.802Z,21.38
2023-04-05T18:46:19.070Z,19.05
2023-04-05T18:49:06.583Z,19.77
2023-04-05T18:51:55.876Z,22.27
2023-04-05T18:54:41.633Z,21.25
2023-04-05T18:57:27.851Z,27.67
2023-04-05T19:00:21.026Z,38.35
2023-04-05T19:03:10.677Z,31.67
2023-04-05T19:05:57.273Z,20.77
2023-04-05T19:08:43.486Z,17.65
2023-04-05T19:11:29.920Z,22.63
2023-04-05T19:14:16.774Z,28.15
2023-04-05T19:17:03.256Z,16.83
2023-04-05T19:19:49.439Z,18.55
2023-04-05T19:22:36.955Z,20.58
2023-04-05T19:25:23.732Z,18.63
2023-04-05T19:28:09.546Z,20.52
2023-04-05T19:30:55.718Z,18.83
2023-04-05T19:33:41.593Z,20.23
2023-04-05T19:36:27.481Z,26.58
2023-04-05T19:39:12.794Z,21.95
2023-04-05T19:42:00.341Z,25.02
2023-04-05T19:44:46.894Z,30.88
2023-04-05T19:47:36.563Z,31.23
2023-04-05T19:50:39.475Z,40.25
2023-04-05T19:53:54.287Z,247.25
2023-04-05T19:56:42.063Z,63.45
2023-04-05T19:59:30.646Z,49.45
2023-04-05T20:02:35.741Z,52.50
2023-04-05T20:05:42.541Z,33.08
2023-04-05T20:08:30.773Z,40.85
2023-04-05T20:11:21.277Z,23.98
2023-04-05T20:14:08.432Z,39.47
2023-04-05T20:16:56.009Z,28.67
2023-04-05T20:19:56.478Z,25.83
2023-04-05T20:22:42.111Z,30.40
2023-04-05T20:25:39.150Z,28.65
2023-04-05T20:28:38.080Z,30.05
2023-04-05T20:31:25.877Z,34.20
2023-04-05T20:34:14.225Z,42.10
2023-04-05T20:37:01.850Z,50.88
2023-04-05T20:39:48.179Z,46.40
2023-04-05T20:42:33.862Z,186.93
2023-04-05T20:45:20.337Z,52.80
2023-04-05T20:48:06.439Z,39.17
2023-04-05T20:50:52.510Z,31.88
2023-04-05T20:53:39.070Z,43.10
2023-04-05T20:56:25.262Z,37.90
2023-04-05T20:59:11.599Z,33.13
2023-04-05T21:01:58.318Z,37.20
2023-04-05T21:04:45.567Z,30.55
2023-04-05T21:07:34.223Z,38.50
2023-04-05T21:10:21.930Z,30.13
2023-04-05T21:13:07.673Z,34.42
2023-04-05T21:15:54.041Z,97.72
2023-04-05T21:18:40.053Z,118.78
2023-04-05T21:21:26.172Z,86.85
2023-04-05T21:24:11.727Z,84.30
2023-04-05T21:26:57.527Z,71.78
2023-04-05T21:29:43.718Z,50.75
2023-04-05T21:32:29.180Z,78.53
2023-04-05T21:35:15.204Z,126.72
2023-04-05T21:38:01.129Z,101.50
2023-04-05T21:40:47.812Z,68.40
2023-04-05T21:43:33.656Z,61.80
2023-04-05T21:46:20.681Z,64.05
2023-04-05T21:49:07.981Z,59.08
2023-04-05T21:51:54.034Z,62.33
2023-04-05T21:54:40.055Z,58.25
2023-04-05T21:57:26.317Z,51.05
2023-04-05T22:00:12.252Z,48.00
2023-04-05T22:03:01.295Z,63.63
2023-04-05T22:05:47.106Z,53.60
2023-04-05T22:08:34.362Z,51.78
2023-04-05T22:11:20.780Z,52.85
2023-04-05T22:14:06.739Z,61.28
2023-04-05T22:16:53.313Z,61.63
2023-04-05T22:19:58.060Z,55.78
2023-04-05T22:23:02.502Z,56.38
2023-04-05T22:26:07.508Z,57.80
2023-04-05T22:28:53.190Z,47.30
2023-04-05T22:31:39.259Z,45.40
2023-04-05T22:34:44.131Z,48.40
2023-04-05T22:37:49.196Z,39.28
2023-04-05T22:40:34.957Z,42.42
2023-04-05T22:43:39.640Z,42.88
2023-04-05T22:46:25.644Z,40.05
2023-04-05T22:49:30.760Z,40.13
2023-04-05T22:52:35.600Z,39.80
2023-04-05T22:55:41.134Z,41.25
2023-04-05T22:58:45.695Z,41.20
2023-04-05T23:01:31.658Z,37.78
2023-04-05T23:04:36.082Z,35.72
2023-04-05T23:07:40.783Z,35.90
2023-04-05T23:10:26.130Z,33.20
2023-04-05T23:13:32.196Z,26.35
2023-04-05T23:16:37.896Z,28.08
2023-04-05T23:19:23.942Z,30.00
2023-04-05T23:22:28.380Z,26.88
2023-04-05T23:25:14.495Z,28.15
2023-04-05T23:28:01.428Z,25.55
2023-04-05T23:30:49.161Z,31.38
2023-04-05T23:33:54.601Z,26.00
2023-04-05T23:36:40.791Z,33.08
2023-04-05T23:39:26.808Z,27.80
2023-04-05T23:42:13.483Z,26.08
2023-04-05T23:45:01.944Z,32.83
2023-04-05T23:48:06.902Z,36.97
2023-04-05T23:51:11.359Z,33.28
2023-04-05T23:54:16.066Z,43.35
2023-04-05T23:57:21.345Z,43.05
